Time;durP1;ratioP1;P1;durP2;ratioP2;P2;SDS_P1;SDS_P2;PMS_P1;PMS_P2;Temp;Humidity;BMP_temperature;BMP_pressure;BME280_temperature;BME280_humidity;BME280_pressure;Samples;Min_cycle;Max_cycle;Signal;HPM_P1;HPM_P2
2023/08/26 00:02:06;;;;;;;14.98;7.22;;;;;;;;;;4386822;32;316981;-84
2023/08/26 00:04:34;;;;;;;12.43;8.00;;;;;;;;;;4375263;32;318167;-84
2023/08/26 00:07:02;;;;;;;9.65;7.70;;;;;;;;;;4388536;32;317554;-84
2023/08/26 00:09:32;;;;;;;11.98;7.47;;;;;;;;;;4378674;32;316767;-84
2023/08/26 00:11:59;;;;;;;10.90;7.45;;;;;;;;;;4387879;32;317950;-84
2023/08/26 00:14:27;;;;;;;9.10;7.18;;;;;;;;;;4386766;32;318004;-85
2023/08/26 00:16:54;;;;;;;9.35;7.53;;;;;;;;;;4375360;32;415968;-84
2023/08/26 00:19:21;;;;;;;8.98;7.28;;;;;;;;;;4387589;32;350226;-85
2023/08/26 00:21:50;;;;;;;11.98;7.75;;;;;;;;;;4375885;32;317056;-84
2023/08/26 00:24:18;;;;;;;10.05;7.07;;;;;;;;;;4388495;32;317930;-81
2023/08/26 00:26:47;;;;;;;12.43;7.80;;;;;;;;;;4377950;32;317981;-85
2023/08/26 00:29:14;;;;;;;11.70;7.72;;;;;;;;;;4387922;32;317628;-84
2023/08/26 00:31:42;;;;;;;11.03;7.47;;;;;;;;;;4375924;32;318004;-86
2023/08/26 00:34:09;;;;;;;8.77;7.35;;;;;;;;;;4385908;32;318261;-85
2023/08/26 00:36:36;;;;;;;11.30;7.47;;;;;;;;;;4373939;32;316918;-85
2023/08/26 00:39:04;;;;;;;9.88;7.50;;;;;;;;;;4387251;32;317738;-85
2023/08/26 00:41:31;;;;;;;10.15;8.02;;;;;;;;;;4377809;32;316974;-85
2023/08/26 00:44:00;;;;;;;18.35;8.27;;;;;;;;;;4387328;32;317951;-83
2023/08/26 00:46:28;;;;;;;9.60;7.57;;;;;;;;;;4386702;32;317779;-83
2023/08/26 00:48:55;;;;;;;7.93;7.12;;;;;;;;;;4374905;32;416011;-84
2023/08/26 00:51:23;;;;;;;10.68;7.37;;;;;;;;;;4385786;32;316926;-84
2023/08/26 00:53:50;;;;;;;13.00;8.20;;;;;;;;;;4377560;32;317814;-83
2023/08/26 00:56:18;;;;;;;9.05;7.85;;;;;;;;;;4386688;32;317890;-83
2023/08/26 00:58:45;;;;;;;10.77;7.55;;;;;;;;;;4377801;32;317085;-84
2023/08/26 01:01:14;;;;;;;10.38;7.80;;;;;;;;;;4387861;32;317886;-84
2023/08/26 01:03:42;;;;;;;9.95;8.23;;;;;;;;;;4377634;32;317888;-85
2023/08/26 01:06:09;;;;;;;10.40;8.55;;;;;;;;;;4385618;32;316684;-85
2023/08/26 01:08:37;;;;;;;8.73;7.53;;;;;;;;;;4376869;32;318007;-84
2023/08/26 01:11:12;;;;;;;8.25;7.45;;;;;;;;;;4385428;32;316915;-85
2023/08/26 01:13:46;;;;;;;11.15;7.40;;;;;;;;;;4376343;32;316798;-85
2023/08/26 01:16:16;;;;;;;12.55;8.50;;;;;;;;;;4386599;32;318015;-84
2023/08/26 01:18:44;;;;;;;14.18;8.00;;;;;;;;;;4378150;32;317977;-85
2023/08/26 01:21:14;;;;;;;10.07;7.45;;;;;;;;;;4386948;32;318135;-85
2023/08/26 01:23:44;;;;;;;12.90;8.13;;;;;;;;;;4377109;32;317895;-85
2023/08/26 01:26:11;;;;;;;11.07;7.55;;;;;;;;;;4385413;32;317824;-83
2023/08/26 01:28:39;;;;;;;12.15;8.18;;;;;;;;;;4377816;32;317856;-87
2023/08/26 01:31:10;;;;;;;13.77;8.60;;;;;;;;;;4387091;32;317964;-84
2023/08/26 01:33:45;;;;;;;14.55;9.32;;;;;;;;;;4377807;32;317927;-84
2023/08/26 01:36:18;;;;;;;11.48;9.43;;;;;;;;;;4387050;32;317834;-84
2023/08/26 01:38:47;;;;;;;14.52;9.07;;;;;;;;;;4376127;32;317859;-84
2023/08/26 01:41:23;;;;;;;16.17;9.00;;;;;;;;;;4386916;32;316648;-83
2023/08/26 01:43:52;;;;;;;17.48;9.60;;;;;;;;;;4376306;32;318226;-85
2023/08/26 01:46:19;;;;;;;13.00;8.82;;;;;;;;;;4385502;32;317931;-84
2023/08/26 01:48:47;;;;;;;9.43;8.05;;;;;;;;;;4377639;32;318129;-85
2023/08/26 01:51:17;;;;;;;13.85;9.35;;;;;;;;;;4386202;32;317073;-86
2023/08/26 01:53:46;;;;;;;13.55;8.57;;;;;;;;;;4376546;32;317729;-85
2023/08/26 01:56:15;;;;;;;11.60;8.30;;;;;;;;;;4386999;32;317843;-86
2023/08/26 01:58:44;;;;;;;10.55;8.50;;;;;;;;;;4376263;32;317937;-85
2023/08/26 02:01:12;;;;;;;12.37;8.88;;;;;;;;;;4386933;32;327392;-85
2023/08/26 02:03:39;;;;;;;10.40;9.02;;;;;;;;;;4377472;32;317748;-84
2023/08/26 02:06:08;;;;;;;12.60;8.52;;;;;;;;;;4386638;32;317972;-86
2023/08/26 02:08:36;;;;;;;22.65;9.50;;;;;;;;;;4377177;32;317884;-83
2023/08/26 02:11:05;;;;;;;19.50;10.05;;;;;;;;;;4384788;32;317776;-83
2023/08/26 02:13:32;;;;;;;17.15;9.70;;;;;;;;;;4376135;32;318977;-83
2023/08/26 02:16:00;;;;;;;23.52;11.70;;;;;;;;;;4386536;32;318194;-83
2023/08/26 02:18:27;;;;;;;14.05;9.40;;;;;;;;;;4386120;32;318906;-86
2023/08/26 02:20:55;;;;;;;11.57;8.95;;;;;;;;;;4372780;32;417376;-86
2023/08/26 02:23:22;;;;;;;12.95;9.80;;;;;;;;;;4386227;32;317949;-82
2023/08/26 02:25:49;;;;;;;11.77;9.27;;;;;;;;;;4376564;32;317988;-84
2023/08/26 02:28:18;;;;;;;14.93;9.50;;;;;;;;;;4386018;32;318192;-84
2023/08/26 02:30:46;;;;;;;13.27;9.20;;;;;;;;;;4376934;32;317743;-84
2023/08/26 02:33:13;;;;;;;13.32;9.75;;;;;;;;;;4386067;32;317928;-85
2023/08/26 02:35:47;;;;;;;14.48;9.98;;;;;;;;;;4376189;32;317946;-84
2023/08/26 02:38:14;;;;;;;11.32;9.75;;;;;;;;;;4385977;32;318023;-84
2023/08/26 02:40:41;;;;;;;14.85;10.35;;;;;;;;;;4374886;32;317458;-84
2023/08/26 02:43:12;;;;;;;16.58;9.68;;;;;;;;;;4386748;32;317723;-84
2023/08/26 02:45:41;;;;;;;15.48;9.93;;;;;;;;;;4375358;32;317945;-84
2023/08/26 02:48:08;;;;;;;13.43;9.68;;;;;;;;;;4385953;32;317859;-84
2023/08/26 02:50:37;;;;;;;13.00;10.63;;;;;;;;;;4376958;32;317893;-84
2023/08/26 02:53:05;;;;;;;15.68;11.38;;;;;;;;;;4386071;32;319111;-85
2023/08/26 02:55:32;;;;;;;18.60;11.63;;;;;;;;;;4374771;32;318923;-85
2023/08/26 02:57:59;;;;;;;16.27;9.63;;;;;;;;;;4386322;32;318836;-84
2023/08/26 03:00:27;;;;;;;12.95;9.32;;;;;;;;;;4386778;32;318012;-84
2023/08/26 03:02:56;;;;;;;10.35;8.70;;;;;;;;;;4372115;32;418522;-85
2023/08/26 03:05:23;;;;;;;17.17;10.52;;;;;;;;;;4385745;32;317940;-84
2023/08/26 03:07:52;;;;;;;13.88;9.40;;;;;;;;;;4373905;32;319157;-84
2023/08/26 03:10:19;;;;;;;16.58;9.85;;;;;;;;;;4385701;32;317703;-84
2023/08/26 03:12:46;;;;;;;12.60;9.82;;;;;;;;;;4376421;32;318022;-84
2023/08/26 03:15:14;;;;;;;21.00;10.32;;;;;;;;;;4385806;32;318007;-83
2023/08/26 03:17:42;;;;;;;12.70;9.07;;;;;;;;;;4374353;32;318810;-83
2023/08/26 03:20:12;;;;;;;19.60;10.02;;;;;;;;;;4385503;32;318114;-83
2023/08/26 03:22:39;;;;;;;14.52;11.27;;;;;;;;;;4374379;32;318899;-84
2023/08/26 03:25:07;;;;;;;19.42;11.52;;;;;;;;;;4386409;32;318943;-83
2023/08/26 03:27:35;;;;;;;25.95;13.32;;;;;;;;;;4375340;32;347538;-83
2023/08/26 03:30:02;;;;;;;22.23;12.88;;;;;;;;;;4387097;32;318907;-83
2023/08/26 03:32:30;;;;;;;20.58;13.00;;;;;;;;;;4378634;32;319215;-84
2023/08/26 03:34:57;;;;;;;22.48;13.50;;;;;;;;;;4386224;32;319105;-83
2023/08/26 03:37:26;;;;;;;22.60;14.23;;;;;;;;;;4384687;32;318912;-83
2023/08/26 03:39:53;;;;;;;25.50;14.57;;;;;;;;;;4375807;32;319051;-83
2023/08/26 03:42:20;;;;;;;24.30;13.82;;;;;;;;;;4384506;32;318765;-83
2023/08/26 03:44:48;;;;;;;24.25;13.60;;;;;;;;;;4375668;32;319030;-83
2023/08/26 03:47:16;;;;;;;29.10;13.35;;;;;;;;;;4384863;32;318991;-83
2023/08/26 03:49:43;;;;;;;22.02;12.77;;;;;;;;;;4376022;32;325801;-83
2023/08/26 03:52:11;;;;;;;19.75;12.02;;;;;;;;;;4385575;32;318984;-83
2023/08/26 03:54:39;;;;;;;19.67;12.33;;;;;;;;;;4374817;32;318829;-83
2023/08/26 03:57:07;;;;;;;17.05;11.20;;;;;;;;;;4385901;32;319269;-83
2023/08/26 03:59:34;;;;;;;16.33;10.52;;;;;;;;;;4374559;32;318851;-83
2023/08/26 04:02:02;;;;;;;19.17;11.30;;;;;;;;;;4385528;32;319048;-83
2023/08/26 04:04:31;;;;;;;27.34;10.64;;;;;;;;;;4385585;32;359417;-83
2023/08/26 04:06:58;;;;;;;15.60;9.85;;;;;;;;;;4387940;32;318823;-87
2023/08/26 04:09:26;;;;;;;13.77;10.32;;;;;;;;;;4388272;32;317709;-84
2023/08/26 04:11:56;;;;;;;14.52;10.73;;;;;;;;;;4377238;32;318805;-83
2023/08/26 04:14:24;;;;;;;22.92;10.73;;;;;;;;;;4387961;32;318774;-82
2023/08/26 04:16:52;;;;;;;15.60;10.15;;;;;;;;;;4377073;32;318658;-83
2023/08/26 04:19:19;;;;;;;12.27;10.02;;;;;;;;;;4388373;32;318878;-83
2023/08/26 04:21:47;;;;;;;16.08;10.32;;;;;;;;;;4378170;32;319203;-84
2023/08/26 04:24:14;;;;;;;20.30;10.70;;;;;;;;;;4387001;32;318773;-83
2023/08/26 04:26:42;;;;;;;15.10;9.75;;;;;;;;;;4376633;32;342281;-86
2023/08/26 04:29:11;;;;;;;18.50;9.50;;;;;;;;;;4387136;32;318203;-83
2023/08/26 04:31:39;;;;;;;15.55;8.77;;;;;;;;;;4377367;32;317903;-82
2023/08/26 04:34:07;;;;;;;11.15;9.25;;;;;;;;;;4387847;32;317537;-82
2023/08/26 04:36:34;;;;;;;15.32;9.55;;;;;;;;;;4376295;32;369690;-82
2023/08/26 04:39:02;;;;;;;14.13;8.50;;;;;;;;;;4388367;32;317972;-82
2023/08/26 04:41:32;;;;;;;10.48;9.23;;;;;;;;;;4377533;32;318117;-86
2023/08/26 04:44:00;;;;;;;10.55;9.55;;;;;;;;;;4387460;32;317763;-83
2023/08/26 04:46:31;;;;;;;10.95;9.48;;;;;;;;;;4385610;32;318247;-86
2023/08/26 04:48:58;;;;;;;11.60;9.77;;;;;;;;;;4372712;32;420347;-86
2023/08/26 04:51:26;;;;;;;13.13;10.15;;;;;;;;;;4388677;32;317707;-83
2023/08/26 04:53:53;;;;;;;11.12;8.40;;;;;;;;;;4377121;32;319122;-83
2023/08/26 04:56:21;;;;;;;17.87;9.15;;;;;;;;;;4373026;32;318138;-84
2023/08/26 04:58:48;;;;;;;13.75;9.57;;;;;;;;;;4375779;32;318336;-83
2023/08/26 05:01:17;;;;;;;12.25;9.30;;;;;;;;;;4389463;32;317810;-83
2023/08/26 05:03:46;;;;;;;14.82;10.30;;;;;;;;;;4379054;32;318021;-82
2023/08/26 05:06:14;;;;;;;11.93;9.85;;;;;;;;;;4389075;32;318848;-83
2023/08/26 05:08:41;;;;;;;12.50;9.82;;;;;;;;;;4376447;32;318048;-83
2023/08/26 05:11:09;;;;;;;20.23;10.38;;;;;;;;;;4387517;32;317757;-83
2023/08/26 05:13:36;;;;;;;19.73;11.73;;;;;;;;;;4386841;32;318770;-83
2023/08/26 05:16:04;;;;;;;18.02;10.18;;;;;;;;;;4373246;32;418360;-83
2023/08/26 05:18:31;;;;;;;19.55;10.45;;;;;;;;;;4386983;32;319104;-83
2023/08/26 05:21:01;;;;;;;16.02;10.77;;;;;;;;;;4378762;32;318970;-85
2023/08/26 05:23:28;;;;;;;20.12;12.02;;;;;;;;;;4388230;32;318882;-83
2023/08/26 05:25:56;;;;;;;14.90;10.38;;;;;;;;;;4378043;32;318922;-83
2023/08/26 05:28:23;;;;;;;18.42;11.45;;;;;;;;;;4386929;32;318944;-83
2023/08/26 05:30:50;;;;;;;15.82;12.10;;;;;;;;;;4377771;32;318992;-83
2023/08/26 05:33:18;;;;;;;14.40;11.35;;;;;;;;;;4387702;32;332312;-83
2023/08/26 05:35:45;;;;;;;14.20;10.27;;;;;;;;;;4375227;32;318981;-83
2023/08/26 05:38:14;;;;;;;13.05;10.43;;;;;;;;;;4387968;32;318922;-84
2023/08/26 05:40:42;;;;;;;12.80;10.15;;;;;;;;;;4377414;32;318980;-82
2023/08/26 05:43:09;;;;;;;22.75;10.85;;;;;;;;;;4386838;32;319146;-85
2023/08/26 05:45:37;;;;;;;11.95;10.73;;;;;;;;;;4387281;32;318852;-88
2023/08/26 05:48:05;;;;;;;19.40;10.57;;;;;;;;;;4373440;32;418428;-83
2023/08/26 05:50:32;;;;;;;16.85;10.73;;;;;;;;;;4386497;32;318695;-83
2023/08/26 05:53:00;;;;;;;18.40;10.15;;;;;;;;;;4375761;32;319014;-83
2023/08/26 05:55:29;;;;;;;15.30;10.85;;;;;;;;;;4355359;32;318802;-83
2023/08/26 05:57:56;;;;;;;20.65;10.45;;;;;;;;;;4344914;32;318699;-83
2023/08/26 06:00:26;;;;;;;17.70;10.15;;;;;;;;;;4356549;32;318734;-83
2023/08/26 06:02:53;;;;;;;18.90;10.53;;;;;;;;;;4345242;32;320809;-84
2023/08/26 06:05:22;;;;;;;18.37;11.30;;;;;;;;;;4357081;32;318832;-83
2023/08/26 06:07:50;;;;;;;16.17;9.68;;;;;;;;;;4344674;32;319153;-85
2023/08/26 06:10:17;;;;;;;18.37;9.68;;;;;;;;;;4355686;32;317862;-84
2023/08/26 06:12:46;;;;;;;16.42;10.25;;;;;;;;;;4346011;32;317754;-84
2023/08/26 06:15:14;;;;;;;21.30;9.85;;;;;;;;;;4356753;32;318467;-84
2023/08/26 06:17:42;;;;;;;16.85;10.15;;;;;;;;;;4342612;32;317892;-84
2023/08/26 06:20:10;;;;;;;22.27;10.77;;;;;;;;;;4355541;32;318767;-83
2023/08/26 06:22:37;;;;;;;12.73;9.50;;;;;;;;;;4349505;32;319010;-84
2023/08/26 06:25:05;;;;;;;13.93;10.63;;;;;;;;;;4356195;32;317967;-83
2023/08/26 06:27:33;;;;;;;17.87;10.63;;;;;;;;;;4353862;32;318958;-84
2023/08/26 06:30:04;;;;;;;15.52;10.80;;;;;;;;;;4345733;32;318741;-83
2023/08/26 06:32:32;;;;;;;12.00;10.40;;;;;;;;;;4356161;32;318919;-84
2023/08/26 06:34:59;;;;;;;12.80;9.82;;;;;;;;;;4344791;32;318787;-84
2023/08/26 06:37:27;;;;;;;15.00;10.30;;;;;;;;;;4356609;32;316774;-83
2023/08/26 06:39:54;;;;;;;22.20;10.15;;;;;;;;;;4343306;32;318785;-84
2023/08/26 06:42:22;;;;;;;14.25;9.55;;;;;;;;;;4356573;32;318824;-83
2023/08/26 06:44:50;;;;;;;16.33;10.13;;;;;;;;;;4346241;32;317807;-85
2023/08/26 06:47:18;;;;;;;15.20;10.90;;;;;;;;;;4354792;32;318748;-82
2023/08/26 06:49:46;;;;;;;11.30;9.65;;;;;;;;;;4345945;32;319089;-82
2023/08/26 06:52:15;;;;;;;15.63;9.77;;;;;;;;;;4354637;32;317602;-84
2023/08/26 06:54:42;;;;;;;24.83;21.20;;;;;;;;;;4365070;32;366373;-83
2023/08/26 06:57:10;;;;;;;17.45;11.35;;;;;;;;;;4385346;32;318974;-83
2023/08/26 06:59:37;;;;;;;18.40;10.07;;;;;;;;;;4384334;32;318974;-83
2023/08/26 07:02:05;;;;;;;11.35;9.02;;;;;;;;;;4371894;32;418548;-82
2023/08/26 07:04:35;;;;;;;14.35;10.18;;;;;;;;;;4386082;32;317609;-82
2023/08/26 07:07:03;;;;;;;12.75;9.93;;;;;;;;;;4373933;32;331686;-82
2023/08/26 07:09:30;;;;;;;11.98;9.65;;;;;;;;;;4384259;32;348971;-86
2023/08/26 07:11:57;;;;;;;12.00;9.60;;;;;;;;;;4375155;32;318002;-82
2023/08/26 07:14:25;;;;;;;14.85;9.38;;;;;;;;;;4385382;32;317717;-82
2023/08/26 07:16:53;;;;;;;13.62;10.13;;;;;;;;;;4374814;32;318108;-83
2023/08/26 07:19:22;;;;;;;16.80;9.98;;;;;;;;;;4386090;32;318894;-84
2023/08/26 07:21:51;;;;;;;13.40;10.33;;;;;;;;;;4374533;32;318009;-82
2023/08/26 07:24:19;;;;;;;13.80;11.00;;;;;;;;;;4384911;32;318915;-82
2023/08/26 07:26:46;;;;;;;17.70;9.43;;;;;;;;;;4374624;32;318996;-87
2023/08/26 07:29:14;;;;;;;15.52;9.70;;;;;;;;;;4385998;32;317547;-84
2023/08/26 07:31:41;;;;;;;17.65;10.95;;;;;;;;;;4373533;32;317727;-86
2023/08/26 07:34:09;;;;;;;12.98;10.18;;;;;;;;;;4385736;32;317743;-82
2023/08/26 07:36:36;;;;;;;14.05;9.45;;;;;;;;;;4384635;32;319451;-82
2023/08/26 07:39:05;;;;;;;16.90;10.55;;;;;;;;;;4374174;32;388076;-83
2023/08/26 07:41:32;;;;;;;11.48;10.27;;;;;;;;;;4388852;32;318742;-82
2023/08/26 07:44:00;;;;;;;12.90;9.70;;;;;;;;;;4378311;32;318821;-84
2023/08/26 07:46:27;;;;;;;14.20;11.00;;;;;;;;;;4387082;32;317925;-83
2023/08/26 07:48:55;;;;;;;12.68;10.00;;;;;;;;;;4378372;32;318608;-82
2023/08/26 07:51:22;;;;;;;19.92;10.75;;;;;;;;;;4388334;32;319078;-79
2023/08/26 07:53:49;;;;;;;17.15;9.85;;;;;;;;;;4377607;32;318509;-83
2023/08/26 07:56:18;;;;;;;15.32;10.13;;;;;;;;;;4388545;32;317709;-85
2023/08/26 07:58:46;;;;;;;18.95;9.73;;;;;;;;;;4378598;32;318679;-82
2023/08/26 08:01:13;;;;;;;23.02;11.88;;;;;;;;;;4388421;32;317611;-82
2023/08/26 08:03:40;;;;;;;13.90;9.82;;;;;;;;;;4375607;32;318983;-82
2023/08/26 08:06:08;;;;;;;22.35;10.85;;;;;;;;;;4388362;32;317779;-82
2023/08/26 08:08:35;;;;;;;12.50;10.23;;;;;;;;;;4386480;32;319500;-82
2023/08/26 08:11:03;;;;;;;18.98;9.82;;;;;;;;;;4378082;32;318722;-82
2023/08/26 08:13:32;;;;;;;16.60;9.15;;;;;;;;;;4387959;32;317691;-82
2023/08/26 08:15:59;;;;;;;11.82;9.68;;;;;;;;;;4375966;32;317844;-81
2023/08/26 08:18:27;;;;;;;15.15;10.23;;;;;;;;;;4388855;32;317709;-81
2023/08/26 08:20:54;;;;;;;16.03;10.53;;;;;;;;;;4377264;32;343428;-83
2023/08/26 08:23:22;;;;;;;14.40;9.77;;;;;;;;;;4388690;32;318783;-82
2023/08/26 08:25:49;;;;;;;18.60;10.88;;;;;;;;;;4378605;32;329202;-82
2023/08/26 08:28:16;;;;;;;13.30;9.93;;;;;;;;;;4387258;32;318981;-82
2023/08/26 08:30:48;;;;;;;16.52;9.52;;;;;;;;;;4378112;32;318060;-82
2023/08/26 08:33:15;;;;;;;15.93;10.55;;;;;;;;;;4387202;32;317607;-83
2023/08/26 08:35:42;;;;;;;12.85;10.23;;;;;;;;;;4372902;32;318992;-84
2023/08/26 08:38:10;;;;;;;15.45;9.65;;;;;;;;;;4388630;32;318793;-84
2023/08/26 08:40:38;;;;;;;12.43;10.18;;;;;;;;;;4385723;32;317792;-82
2023/08/26 08:43:07;;;;;;;27.05;11.75;;;;;;;;;;4387371;32;319568;-82
2023/08/26 08:45:35;;;;;;;19.27;9.48;;;;;;;;;;4386957;32;318852;-82
2023/08/26 08:48:04;;;;;;;19.77;10.90;;;;;;;;;;4374024;32;418789;-81
2023/08/26 08:50:32;;;;;;;13.35;10.20;;;;;;;;;;4384571;32;318920;-81
2023/08/26 08:52:59;;;;;;;14.18;9.35;;;;;;;;;;4376208;32;319590;-82
2023/08/26 08:55:27;;;;;;;17.08;10.75;;;;;;;;;;4388580;32;317641;-81
2023/08/26 08:57:56;;;;;;;14.87;10.50;;;;;;;;;;4376888;32;318717;-79
2023/08/26 09:00:28;;;;;;;13.35;9.45;;;;;;;;;;4387461;32;318742;-83
2023/08/26 09:02:59;;;;;;;15.60;11.20;;;;;;;;;;4377185;32;317879;-85
2023/08/26 09:05:28;;;;;;;22.70;11.02;;;;;;;;;;4388440;32;318694;-86
2023/08/26 09:07:56;;;;;;;19.02;9.65;;;;;;;;;;4376345;32;318915;-84
2023/08/26 09:10:26;;;;;;;12.43;10.32;;;;;;;;;;4386937;32;317791;-84
2023/08/26 09:12:53;;;;;;;10.70;9.20;;;;;;;;;;4376410;32;321237;-81
2023/08/26 09:15:21;;;;;;;18.80;9.48;;;;;;;;;;4388424;32;317852;-87
2023/08/26 09:17:50;;;;;;;14.80;9.30;;;;;;;;;;4377017;32;317959;-84
2023/08/26 09:20:17;;;;;;;18.02;10.20;;;;;;;;;;4387880;32;317585;-83
2023/08/26 09:22:46;;;;;;;12.73;9.30;;;;;;;;;;4375500;32;318811;-84
2023/08/26 09:25:14;;;;;;;14.10;9.20;;;;;;;;;;4386284;32;317614;-85
2023/08/26 09:27:44;;;;;;;13.52;9.43;;;;;;;;;;4376568;32;330863;-81
2023/08/26 09:30:20;;;;;;;11.70;10.15;;;;;;;;;;4388011;32;317707;-85
2023/08/26 09:32:49;;;;;;;16.73;10.77;;;;;;;;;;4374020;32;336972;-86
2023/08/26 09:35:18;;;;;;;17.42;9.40;;;;;;;;;;4385162;32;318858;-85
2023/08/26 09:37:49;;;;;;;10.30;9.30;;;;;;;;;;4375970;32;317833;-84
2023/08/26 09:40:18;;;;;;;14.93;10.27;;;;;;;;;;4386809;32;317766;-85
2023/08/26 09:42:45;;;;;;;13.40;8.63;;;;;;;;;;4375147;32;318881;-85
2023/08/26 09:45:17;;;;;;;15.63;9.18;;;;;;;;;;4387161;32;317645;-84
2023/08/26 09:47:48;;;;;;;14.85;9.55;;;;;;;;;;4376427;32;317825;-84
2023/08/26 09:50:15;;;;;;;9.15;8.30;;;;;;;;;;4387389;32;317787;-84
2023/08/26 09:52:43;;;;;;;9.77;8.80;;;;;;;;;;4375493;32;316965;-84
2023/08/26 09:55:12;;;;;;;13.18;10.00;;;;;;;;;;4387171;32;316954;-83
2023/08/26 09:57:40;;;;;;;12.35;9.23;;;;;;;;;;4376158;32;318843;-81
2023/08/26 10:00:10;;;;;;;12.55;9.45;;;;;;;;;;4385805;32;332269;-83
2023/08/26 10:02:39;;;;;;;10.98;8.57;;;;;;;;;;4386013;32;358188;-83
2023/08/26 10:05:12;;;;;;;12.18;9.07;;;;;;;;;;4372504;32;416815;-84
2023/08/26 10:07:41;;;;;;;9.32;8.27;;;;;;;;;;4378118;32;398158;-82
2023/08/26 10:10:14;;;;;;;13.10;8.65;;;;;;;;;;4384663;32;316707;-84
2023/08/26 10:12:47;;;;;;;9.00;8.07;;;;;;;;;;4377294;32;318103;-83
2023/08/26 10:15:18;;;;;;;10.07;8.63;;;;;;;;;;4385964;32;316546;-83
2023/08/26 10:17:49;;;;;;;12.00;10.02;;;;;;;;;;4376146;32;317838;-82
2023/08/26 10:20:17;;;;;;;10.15;8.85;;;;;;;;;;4385478;32;318778;-82
2023/08/26 10:22:45;;;;;;;12.55;8.20;;;;;;;;;;4376663;32;317649;-83
2023/08/26 10:25:13;;;;;;;10.00;8.18;;;;;;;;;;4386979;32;317770;-80
2023/08/26 10:27:41;;;;;;;11.52;9.10;;;;;;;;;;4376281;32;319651;-81
2023/08/26 10:30:10;;;;;;;14.45;8.63;;;;;;;;;;4385685;32;317785;-85
2023/08/26 10:32:44;;;;;;;10.48;8.88;;;;;;;;;;4376157;32;317789;-82
2023/08/26 10:35:13;;;;;;;13.18;8.88;;;;;;;;;;4385415;32;317619;-80
2023/08/26 10:37:41;;;;;;;11.70;8.13;;;;;;;;;;4373196;32;319238;-87
2023/08/26 10:40:12;;;;;;;13.18;10.57;;;;;;;;;;4386596;32;317029;-76
2023/08/26 10:42:40;;;;;;;12.93;10.07;;;;;;;;;;4372143;32;319023;-77
2023/08/26 10:45:15;;;;;;;15.75;8.80;;;;;;;;;;4385564;32;318910;-79
2023/08/26 10:47:45;;;;;;;11.77;10.55;;;;;;;;;;4374928;32;317715;-81
2023/08/26 10:50:19;;;;;;;18.60;10.50;;;;;;;;;;4385566;32;318922;-78
2023/08/26 10:52:47;;;;;;;10.73;8.80;;;;;;;;;;4373962;32;318768;-79
2023/08/26 10:55:20;;;;;;;10.75;8.70;;;;;;;;;;4386582;32;318393;-79
2023/08/26 10:58:10;;;;;;;11.80;7.97;;;;;;;;;;4374018;32;359511;-81
2023/08/26 11:00:40;;;;;;;19.87;9.02;;;;;;;;;;4387341;32;317779;-82
2023/08/26 11:03:09;;;;;;;11.40;9.15;;;;;;;;;;4373283;32;417102;-82
2023/08/26 11:05:37;;;;;;;12.77;8.88;;;;;;;;;;4386238;32;317626;-80
2023/08/26 11:08:06;;;;;;;12.95;9.15;;;;;;;;;;4373196;32;417470;-85
2023/08/26 11:10:35;;;;;;;10.45;8.73;;;;;;;;;;4385333;32;317832;-83
2023/08/26 11:13:04;;;;;;;8.52;6.82;;;;;;;;;;4373417;32;330238;-82
2023/08/26 11:15:36;;;;;;;23.02;8.07;;;;;;;;;;4386300;32;316610;-82
2023/08/26 11:18:05;;;;;;;9.05;7.05;;;;;;;;;;4372801;32;417012;-82
2023/08/26 11:20:33;;;;;;;11.07;6.65;;;;;;;;;;4386516;32;316650;-82
2023/08/26 11:23:02;;;;;;;6.78;6.07;;;;;;;;;;4376279;32;317760;-81
2023/08/26 11:25:29;;;;;;;6.82;6.12;;;;;;;;;;4386511;32;316813;-82
2023/08/26 11:28:03;;;;;;;8.40;6.40;;;;;;;;;;4374737;32;332632;-82
2023/08/26 11:30:31;;;;;;;8.98;6.70;;;;;;;;;;4385595;32;316839;-82
2023/08/26 11:33:01;;;;;;;14.23;7.57;;;;;;;;;;4374569;32;316769;-82
2023/08/26 11:35:30;;;;;;;8.70;7.18;;;;;;;;;;4385923;32;317730;-82
2023/08/26 11:37:57;;;;;;;11.32;6.72;;;;;;;;;;4374925;32;316570;-82
2023/08/26 11:40:25;;;;;;;11.68;7.10;;;;;;;;;;4386462;32;317882;-83
2023/08/26 11:42:52;;;;;;;7.55;6.78;;;;;;;;;;4375924;32;317643;-82
2023/08/26 11:45:19;;;;;;;9.05;6.40;;;;;;;;;;4385400;32;316965;-82
2023/08/26 11:47:46;;;;;;;7.85;5.90;;;;;;;;;;4375240;32;316686;-83
2023/08/26 11:50:17;;;;;;;14.65;6.70;;;;;;;;;;4385683;32;316630;-82
2023/08/26 11:52:45;;;;;;;6.65;5.50;;;;;;;;;;4375121;32;317573;-83
2023/08/26 11:55:13;;;;;;;10.68;6.43;;;;;;;;;;4384786;32;316640;-82
2023/08/26 11:57:41;;;;;;;12.55;6.45;;;;;;;;;;4375405;32;317831;-82
2023/08/26 12:00:11;;;;;;;16.48;6.65;;;;;;;;;;4384376;32;354233;-82
2023/08/26 12:02:38;;;;;;;11.50;6.47;;;;;;;;;;4375758;32;317649;-83
2023/08/26 12:05:06;;;;;;;7.35;6.62;;;;;;;;;;4386021;32;318072;-82
2023/08/26 12:07:34;;;;;;;8.68;6.32;;;;;;;;;;4384062;32;316713;-82
2023/08/26 12:10:11;;;;;;;6.37;5.78;;;;;;;;;;4373419;32;348597;-82
2023/08/26 12:12:39;;;;;;;10.80;6.10;;;;;;;;;;4374482;32;316800;-82
2023/08/26 12:15:08;;;;;;;8.38;6.37;;;;;;;;;;4385713;32;318046;-82
2023/08/26 12:17:44;;;;;;;11.30;6.35;;;;;;;;;;4384310;32;316874;-81
2023/08/26 12:20:25;;;;;;;9.98;6.07;;;;;;;;;;4373513;32;389505;-82
2023/08/26 12:22:53;;;;;;;7.22;5.65;;;;;;;;;;4374998;32;334717;-81
2023/08/26 12:25:25;;;;;;;11.23;5.30;;;;;;;;;;4384627;32;316917;-82
2023/08/26 12:27:53;;;;;;;10.02;6.07;;;;;;;;;;4377118;32;317512;-82
2023/08/26 12:30:20;;;;;;;6.18;5.45;;;;;;;;;;4388966;32;317817;-82
2023/08/26 12:32:48;;;;;;;8.85;5.85;;;;;;;;;;4377399;32;317027;-82
2023/08/26 12:35:16;;;;;;;7.05;5.75;;;;;;;;;;4388991;32;316786;-82
2023/08/26 12:37:43;;;;;;;6.32;5.72;;;;;;;;;;4376711;32;316562;-82
2023/08/26 12:40:12;;;;;;;6.70;5.47;;;;;;;;;;4388678;32;316646;-82
2023/08/26 12:42:43;;;;;;;10.45;6.05;;;;;;;;;;4377518;32;317032;-82
2023/08/26 12:45:11;;;;;;;12.95;6.03;;;;;;;;;;4388524;32;317622;-82
2023/08/26 12:47:38;;;;;;;9.05;6.20;;;;;;;;;;4377856;32;318045;-82
2023/08/26 12:50:06;;;;;;;8.07;6.35;;;;;;;;;;4387950;32;316633;-83
2023/08/26 12:52:34;;;;;;;5.93;5.28;;;;;;;;;;4387458;32;316602;-82
2023/08/26 12:55:01;;;;;;;12.32;5.72;;;;;;;;;;4378036;32;316615;-82
2023/08/26 12:57:29;;;;;;;9.95;6.03;;;;;;;;;;4388857;32;317497;-82
2023/08/26 12:59:58;;;;;;;7.05;6.05;;;;;;;;;;4378221;32;316633;-79
2023/08/26 13:02:25;;;;;;;10.15;5.93;;;;;;;;;;4388721;32;316755;-81
2023/08/26 13:04:52;;;;;;;15.13;6.12;;;;;;;;;;4376220;32;317903;-84
2023/08/26 13:07:20;;;;;;;9.98;6.68;;;;;;;;;;4386960;32;317996;-84
2023/08/26 13:09:48;;;;;;;7.95;6.40;;;;;;;;;;4377704;32;316843;-83
2023/08/26 13:12:16;;;;;;;7.80;6.28;;;;;;;;;;4388203;32;316842;-82
2023/08/26 13:14:44;;;;;;;6.87;5.70;;;;;;;;;;4376503;32;317141;-83
2023/08/26 13:17:13;;;;;;;13.35;6.18;;;;;;;;;;4388106;32;317332;-83
2023/08/26 13:19:40;;;;;;;7.40;6.30;;;;;;;;;;4377299;32;317732;-81
2023/08/26 13:22:07;;;;;;;6.43;5.65;;;;;;;;;;4388047;32;316634;-82
2023/08/26 13:24:37;;;;;;;6.97;5.93;;;;;;;;;;4385601;32;343022;-82
2023/08/26 13:27:04;;;;;;;10.80;5.37;;;;;;;;;;4375175;32;415684;-82
2023/08/26 13:29:32;;;;;;;7.45;5.37;;;;;;;;;;4386124;32;317838;-82
2023/08/26 13:31:59;;;;;;;6.53;5.62;;;;;;;;;;4377285;32;316763;-81
2023/08/26 13:34:28;;;;;;;10.93;5.80;;;;;;;;;;4386317;32;317086;-82
2023/08/26 13:36:55;;;;;;;7.00;5.55;;;;;;;;;;4376337;32;317887;-82
2023/08/26 13:39:22;;;;;;;6.93;5.75;;;;;;;;;;4386202;32;316868;-82
2023/08/26 13:41:50;;;;;;;7.55;5.87;;;;;;;;;;4377093;32;316721;-82
2023/08/26 13:44:18;;;;;;;6.10;5.25;;;;;;;;;;4386953;32;316894;-79
2023/08/26 13:46:46;;;;;;;10.95;6.00;;;;;;;;;;4375529;32;316857;-79
2023/08/26 13:49:14;;;;;;;6.20;5.57;;;;;;;;;;4386083;32;317736;-78
2023/08/26 13:51:43;;;;;;;8.07;5.12;;;;;;;;;;4377574;32;316818;-78
2023/08/26 13:54:10;;;;;;;7.35;5.07;;;;;;;;;;4386944;32;316885;-79
2023/08/26 13:56:37;;;;;;;12.63;5.12;;;;;;;;;;4386614;32;316697;-78
2023/08/26 13:59:05;;;;;;;9.68;5.15;;;;;;;;;;4373521;32;387863;-86
2023/08/26 14:01:33;;;;;;;5.78;4.47;;;;;;;;;;4387469;32;316732;-78
2023/08/26 14:04:01;;;;;;;9.25;4.78;;;;;;;;;;4375904;32;316906;-79
2023/08/26 14:06:28;;;;;;;7.78;5.00;;;;;;;;;;4386262;32;316930;-79
2023/08/26 14:08:57;;;;;;;7.85;5.12;;;;;;;;;;4374998;32;316753;-78
2023/08/26 14:11:27;;;;;;;7.80;5.20;;;;;;;;;;4386455;32;316798;-79
2023/08/26 14:13:54;;;;;;;9.95;5.00;;;;;;;;;;4376181;32;316622;-79
2023/08/26 14:16:21;;;;;;;5.45;4.45;;;;;;;;;;4385539;32;346631;-79
2023/08/26 14:18:49;;;;;;;4.40;3.92;;;;;;;;;;4374634;32;316893;-78
2023/08/26 14:21:16;;;;;;;6.85;4.75;;;;;;;;;;4387031;32;316609;-79
2023/08/26 14:23:43;;;;;;;5.37;4.53;;;;;;;;;;4376206;32;316790;-78